ENRA

Mo i Rana , Røssvoll Airport

Mo i Rana, Norway
METAR ENRA 210350Z 25003KT 9999 FEW018 SCT027 BKN035 07/06 Q1011
Observed Flight Rules
Aug-21 @ 03:50 UTC (21 minutes ago) Visual Flight Rules
Wind Visibility Clouds
250° at 3 knots 10,000+ meters
  • Few at 1,800' AGL
  • Scattered at 2,700' AGL
  • Broken at 3,500' AGL
Temperatures Readings
Current 7°C / 45°F
Dewpoint 6°C / 43°F
Humidity 93%
Altimeter 29.85" Hg
Pressure 1011 hPa
Elevation 70
METAR ENRA 210350Z 25003KT 9999 FEW018 SCT027 BKN035 07/06 Q1011
Observed Flight Rules
Aug-21 @ 03:50 UTC
(21 minutes ago)
VFR
Wind Visibility
250° at 3 knots 10,000+ meters
Clouds
  • Few at 1,800' AGL
  • Scattered at 2,700' AGL
  • Broken at 3,500' AGL
Temperature Dewpoint
7°C / 45°F 6°C / 43°F
Humidity Altimeter Pressure
93% 29.85" Hg 1011 hPa